ADDS METAR Data INFO
IDs: Format: Raw Decoded Include TAF

Data at: 0749 UTC 20 Feb 2018

KFTW 200653Z 16018G32KT 10SM OVC018 23/19 A2980 RMK AO2 PK WND 16034/0623 SLP084 T02280194
KFTW 200553Z 16015G25KT 10SM OVC018 23/19 A2981 RMK AO2 PK WND 15026/0528 SLP085 60000 T02280189 10256 20222 402560178 50001
KFTW 200453Z 16013G21KT 10SM OVC018 22/19 A2981 RMK AO2 PK WND 16030/0411 SLP087 T02220189
KFTW 200353Z 16015G25KT 10SM OVC022 22/18 A2981 RMK AO2 PK WND 17027/0342 SLP087 T02220183
KFTW 200310Z 16016G24KT 10SM BKN026 22/18 A2981 RMK AO2 T02220178
KFTW 200253Z 16014G29KT 10SM FEW034 22/18 A2980 RMK AO2 PK WND 16033/0206 RAE0154 SLP084 P0000 60000 T02220178 51014
KFTW 200225Z 17018G29KT 10SM OVC031 23/18 A2980 RMK AO2 PK WND 16033/0206 RAE0154 P0000 T02280178
KFTW 200201Z 16020G33KT 10SM FEW023 OVC027 23/18 A2980 RMK AO2 PK WND 16033/0154 LTG DSNT SE RAE0154 P0000 T02330183
KFTW 200153Z 16021G35KT 10SM -RA FEW023 OVC030 23/18 A2980 RMK AO2 PK WND 18035/0149 LTG DSNT SE RAB44 SLP083 P0000 T02330183
KFTW 200121Z 15020G26KT 10SM BKN028 BKN038 OVC065 24/18 A2978 RMK AO2 PK WND 15026/0059 T02440183
KFTW 200053Z 16020G30KT 10SM FEW046 OVC060 24/18 A2977 RMK AO2 PK WND 14038/0008 SLP073 T02440178
KFTW 192353Z 17019G28KT 10SM OVC060 26/17 A2976 RMK AO2 PK WND 17028/2348 SLP070 T02560172 10256 20244 56001
KFTW 192253Z 17013G25KT 10SM OVC055 26/17 A2976 RMK AO2 SLP070 T02560167
KFTW 192153Z 17018G24KT 10SM OVC050 25/17 A2976 RMK AO2 PK WND 16031/2119 SLP070 T02500167
KFTW 192053Z 17021G29KT 10SM OVC055 25/17 A2976 RMK AO2 PK WND 15033/1959 SLP071 T02500167 58022
KFTW 191953Z 17018G26KT 10SM BKN039 OVC050 24/17 A2979 RMK AO2 PK WND 18031/1940 SLP081 T02440172
KFTW 191853Z 18018G34KT 10SM BKN039 OVC046 25/17 A2982 RMK AO2 PK WND 18037/1837 SLP089 T02500167
KFTW 191807Z 19017G27KT 10SM BKN034 OVC044 25/17 A2983 RMK AO2 PK WND 19027/1807 T02500172
KFTW 191753Z 18017G26KT 10SM BKN029 OVC035 24/18 A2983 RMK AO2 PK WND 18030/1735 SLP094 T02440178 10244 20206 50002
KFTW 191653Z 18019G32KT 10SM OVC024 24/18 A2984 RMK AO2 PK WND 17032/1650 SLP097 T02390178
KFTW 191553Z 19023G31KT 10SM BKN020 OVC025 23/18 A2983 RMK AO2 PK WND 18033/1520 SLP095 T02280183
KFTW 191453Z 18021G30KT 10SM BKN021 OVC027 22/18 A2982 RMK AO2 PK WND 19034/1437 SLP094 T02220183 51008
KFTW 191353Z 18017G26KT 10SM OVC021 22/18 A2982 RMK AO2 PK WND 17026/1347 SLP091 T02170183
KFTW 191253Z 16015G20KT 10SM OVC019 21/18 A2981 RMK AO2 PK WND 16027/1205 SLP090 T02110183
KFTW 191153Z 15014G25KT 10SM BKN018 21/18 A2980 RMK AO2 PK WND 16027/1134 SLP085 70001 T02060178 10206 20178 58013
KFTW 191053Z AUTO 17016G23KT 10SM BKN016 OVC021 21/18 A2983 RMK AO2 PK WND 17028/1009 SLP096 T02060178
KFTW 190953Z 17016G28KT 10SM OVC017 21/18 A2984 RMK AO2 PK WND 16030/0928 SLP098 T02060178
KFTW 190853Z 17019G26KT 10SM OVC016 21/17 A2984 RMK AO2 PK WND 17030/0832 SLP098 T02060172 55005
KFTW 190753Z 16017G34KT 10SM OVC017 20/17 A2983 RMK AO2 PK WND 17034/0748 SLP098 T02000167
KFTW 190708Z 16014G23KT 10SM BKN020 19/17 A2983 RMK AO2 T01890167
KFTW 190653Z 16011KT 10SM FEW020 18/17 A2984 RMK AO2 SLP102 T01830167
KFTW 190553Z 14012KT 9SM CLR 18/17 A2985 RMK AO2 SLP105 T01780167 10178 20167 401940083 58010
KFTW 190453Z 13009KT 3SM BR SCT003 17/16 A2987 RMK AO2 SLP110 T01670161
KFTW 190353Z 17007KT 5SM BR OVC004 17/16 A2989 RMK AO2 SLP118 T01670161
KFTW 190253Z 18008KT 5SM BR OVC003 17/16 A2988 RMK AO2 SLP117 T01670161 50000
KFTW 190153Z 19015KT 4SM BR OVC004 17/16 A2988 RMK AO2 SLP117 T01670161
KFTW 190125Z 18013G23KT 4SM BR OVC004 17/16 A2989 RMK AO2 T01670156
KFTW 190116Z 19014G21KT 4SM BR OVC006 17/16 A2989 RMK AO2 T01670161
KFTW 190053Z AUTO 19010G19KT 9SM OVC006 17/16 A2989 RMK AO2 SLP118 T01720161
KFTW 190002Z 18014G22KT 10SM OVC009 18/16 A2988 RMK AO2 CIG 007V011 T01780161
KFTW 182353Z 18016G24KT 10SM OVC010 18/16 A2988 RMK AO2 SLP117 60001 T01780161 10194 20117 55005
KFTW 182253Z 16015G25KT 10SM OVC013 19/16 A2988 RMK AO2 SLP114 T01890161
KFTW 182153Z 20006KT 10SM OVC013 18/15 A2989 RMK AO2 SLP118 T01830150
KFTW 182111Z 18004KT 10SM OVC011 17/14 A2989 RMK AO2 CIG 007V013 T01670144
KFTW 182053Z 18004KT 10SM OVC008 15/13 A2990 RMK AO2 SLP122 60001 T01500133 56056
KFTW 181953Z 11004KT 9SM OVC005 13/13 A2995 RMK AO2 SLP139 T01330128